Bremen — C6JC3 — position and weather

sailwx.info

Track history (hours):
 
Tides and Currents Weather Stations Pressure Air Temp Water Temp Dewpoint Dewpoint Depression Visibility Wind Speed Wind Dir Waves Ship Positions

Bremen

Operator: Hapag-Lloyd Container Line

Last reported at 2014-Sep-30 12:22 UTC. Time now 2014-Oct-01 16:30 UTC.
Position N 37°37' E 024°04'.

Length 111.5 m; beam 17 m; draft 4.8 m.

Type: Ship. MMSI: 308429000.

Date/timePositionNaut miles runAvg speedWind from/ knotsBaromVisibWave heightAir tempDewpointWater temp
2014-Sep-30 12:22N 37°37' E 024°04'7 8.1
2014-Sep-30 11:31N 37°37' E 023°55'9 9.6
2014-Sep-30 10:33N 37°39' E 023°44'1010.2
2014-Sep-30 09:34N 37°48' E 023°38'1010.2
2014-Sep-30 08:33N 37°51' E 023°25'  
2014-Sep-26 12:32N 39°03' E 009°23'1414.2
2014-Sep-26 11:33N 39°10' E 009°08'3 3.2
2014-Sep-26 10:32N 39°13' E 009°06'0 0.0
2014-Sep-26 09:29N 39°13' E 009°06'0 0.0
2014-Sep-26 08:32N 39°13' E 009°06'0 0.0
2014-Sep-26 07:32N 39°13' E 009°06'0 0.0
2014-Sep-26 06:32N 39°13' E 009°06'0 0.0
2014-Sep-26 04:34N 39°13' E 009°06'7 6.5
2014-Sep-26 03:32N 39°06' E 009°08'46214.0
2014-Sep-24 18:30N 37°30' W 000°28'1414.3
2014-Sep-24 17:32N 37°30' W 000°46'234 5.3
2014-Sep-22 21:15N 36°00' W 005°15'811.2
2014-Sep-22 20:33N 35°58' W 005°24'3 0.2
2014-Sep-22 03:33N 36°00' W 005°22'87 3.0
2014-Sep-20 22:08N 36°46' W 006°54'712.0
2014-Sep-20 21:33N 36°47' W 007°02'1412.1
2014-Sep-20 20:23N 36°47' W 007°20'1011.8
2014-Sep-20 19:33N 36°47' W 007°32'1313.1
2014-Sep-20 18:31N 36°47' W 007°49'1414.0
2014-Sep-20 17:33N 36°48' W 008°06'1413.5
2014-Sep-20 16:33N 36°48' W 008°23'1313.3
2014-Sep-20 15:33N 36°49' W 008°39'1413.6
2014-Sep-20 14:31N 36°49' W 008°57'  
Track history (hours):
 
Tides and Currents Weather Stations Pressure Air Temp Water Temp Dewpoint Dewpoint Depression Visibility Wind Speed Wind Dir Waves Ship Positions

Bremen

Operator: Hapag-Lloyd Container Line

Last reported at 2014-Sep-30 12:22 UTC. Time now 2014-Oct-01 16:30 UTC.
Position N 37°37' E 024°04'.

Length 111.5 m; beam 17 m; draft 4.8 m.

Type: Ship. MMSI: 308429000.

Date/timePositionNaut miles runAvg speedWind from/ knotsBaromVisibWave heightAir tempDewpointWater temp
2014-Sep-30 12:22N 37°37' E 024°04'7 8.1
2014-Sep-30 11:31N 37°37' E 023°55'9 9.6
2014-Sep-30 10:33N 37°39' E 023°44'1010.2
2014-Sep-30 09:34N 37°48' E 023°38'1010.2
2014-Sep-30 08:33N 37°51' E 023°25'  
2014-Sep-26 12:32N 39°03' E 009°23'1414.2
2014-Sep-26 11:33N 39°10' E 009°08'3 3.2
2014-Sep-26 10:32N 39°13' E 009°06'0 0.0
2014-Sep-26 09:29N 39°13' E 009°06'0 0.0
2014-Sep-26 08:32N 39°13' E 009°06'0 0.0
2014-Sep-26 07:32N 39°13' E 009°06'0 0.0
2014-Sep-26 06:32N 39°13' E 009°06'0 0.0
2014-Sep-26 04:34N 39°13' E 009°06'7 6.5
2014-Sep-26 03:32N 39°06' E 009°08'46214.0
2014-Sep-24 18:30N 37°30' W 000°28'1414.3
2014-Sep-24 17:32N 37°30' W 000°46'234 5.3
2014-Sep-22 21:15N 36°00' W 005°15'811.2
2014-Sep-22 20:33N 35°58' W 005°24'3 0.2
2014-Sep-22 03:33N 36°00' W 005°22'87 3.0
2014-Sep-20 22:08N 36°46' W 006°54'712.0
2014-Sep-20 21:33N 36°47' W 007°02'1412.1
2014-Sep-20 20:23N 36°47' W 007°20'1011.8
2014-Sep-20 19:33N 36°47' W 007°32'1313.1
2014-Sep-20 18:31N 36°47' W 007°49'1414.0
2014-Sep-20 17:33N 36°48' W 008°06'1413.5
2014-Sep-20 16:33N 36°48' W 008°23'1313.3
2014-Sep-20 15:33N 36°49' W 008°39'1413.6
2014-Sep-20 14:31N 36°49' W 008°57'  

Dump ship's entire track history